Time;durP1;ratioP1;P1;durP2;ratioP2;P2;SDS_P1;SDS_P2;PMS_P1;PMS_P2;Temp;Humidity;BMP_temperature;BMP_pressure;BME280_temperature;BME280_humidity;BME280_pressure;Samples;Min_cycle;Max_cycle;Signal;HPM_P1;HPM_P2
2021/04/22 00:01:32;;;;;;;9.07;3.23;;;6.80;49.60;;;;;;4937857;29;20254;-88
2021/04/22 00:03:58;;;;;;;5.97;3.50;;;6.80;49.80;;;;;;4947428;29;20420;-87
2021/04/22 00:06:23;;;;;;;6.63;3.53;;;6.80;49.60;;;;;;4952247;29;20179;-86
2021/04/22 00:08:49;;;;;;;7.97;3.33;;;6.80;49.70;;;;;;4948121;29;20211;-87
2021/04/22 00:11:15;;;;;;;11.47;3.33;;;6.80;49.70;;;;;;4949703;29;20183;-87
2021/04/22 00:13:41;;;;;;;15.13;3.73;;;6.80;49.80;;;;;;4938528;29;20186;-87
2021/04/22 00:16:06;;;;;;;7.00;2.97;;;6.80;49.70;;;;;;4936122;29;20175;-87
2021/04/22 00:18:32;;;;;;;10.93;3.40;;;6.80;49.60;;;;;;4936035;29;20400;-87
2021/04/22 00:20:58;;;;;;;5.67;3.50;;;6.70;49.40;;;;;;4935737;29;20186;-87
2021/04/22 00:23:24;;;;;;;12.73;3.43;;;6.60;49.30;;;;;;4935944;29;20250;-87
2021/04/22 00:25:50;;;;;;;8.43;4.30;;;6.60;49.50;;;;;;4935699;29;20203;-88
2021/04/22 00:28:16;;;;;;;11.87;3.10;;;6.70;49.30;;;;;;4935479;29;20521;-87
2021/04/22 00:30:43;;;;;;;10.48;3.78;;;6.60;49.50;;;;;;4918354;29;20474;-88
2021/04/22 00:33:16;;;;;;;13.82;3.70;;;6.70;49.40;;;;;;4918432;29;20175;-87
2021/04/22 00:35:42;;;;;;;14.70;4.17;;;6.60;49.50;;;;;;4935437;29;20259;-88
2021/04/22 00:38:07;;;;;;;8.63;2.97;;;6.60;49.30;;;;;;4935615;29;20833;-87
2021/04/22 00:40:34;;;;;;;16.83;3.63;;;6.70;49.50;;;;;;4918766;29;20416;-87
2021/04/22 00:43:01;;;;;;;10.02;3.40;;;6.70;49.30;;;;;;4935713;29;20262;-88
2021/04/22 00:45:27;;;;;;;11.52;3.40;;;6.70;49.50;;;;;;4935564;29;20167;-87
2021/04/22 00:47:53;;;;;;;4.60;3.00;;;6.80;49.40;;;;;;4935046;29;20556;-88
2021/04/22 00:50:29;;;;;;;8.50;3.23;;;6.80;49.40;;;;;;4950099;28;20223;-88
2021/04/22 00:52:56;;;;;;;12.23;3.40;;;6.80;49.30;;;;;;4939090;29;20663;-87
2021/04/22 00:55:23;;;;;;;6.15;3.50;;;6.90;49.20;;;;;;4939169;29;20626;-88
2021/04/22 00:57:49;;;;;;;12.10;3.15;;;6.90;49.10;;;;;;4939074;29;20202;-88
2021/04/22 01:00:17;;;;;;;7.13;3.30;;;6.90;49.20;;;;;;4938964;29;20502;-88
2021/04/22 01:02:44;;;;;;;8.27;3.67;;;6.80;49.10;;;;;;4939014;29;20502;-87
2021/04/22 01:05:19;;;;;;;11.25;4.07;;;6.70;49.30;;;;;;4938909;29;20409;-88
2021/04/22 01:07:45;;;;;;;13.33;3.77;;;6.60;49.60;;;;;;4938648;29;20663;-88
2021/04/22 01:10:13;;;;;;;10.40;3.00;;;6.50;50.70;;;;;;4956742;29;20414;-87
2021/04/22 01:12:39;;;;;;;13.00;4.85;;;6.40;51.40;;;;;;4958015;29;20185;-88
2021/04/22 01:15:07;;;;;;;18.23;3.13;;;6.30;51.70;;;;;;4957784;29;20646;-87
2021/04/22 01:17:36;;;;;;;12.10;3.43;;;6.10;52.20;;;;;;4940750;29;20274;-87
2021/04/22 01:20:10;;;;;;;9.05;3.72;;;6.00;52.60;;;;;;4958077;29;20406;-87
2021/04/22 01:22:36;;;;;;;9.60;3.10;;;5.80;52.60;;;;;;4961102;29;20174;-87
2021/04/22 01:25:04;;;;;;;6.37;4.27;;;5.60;53.30;;;;;;4964823;29;20174;-87
2021/04/22 01:27:29;;;;;;;7.85;3.70;;;6.50;54.30;;;;;;4977313;29;20395;-88
2021/04/22 01:29:55;;;;;;;12.00;4.23;;;5.40;54.30;;;;;;4950540;29;20277;-87
2021/04/22 01:32:20;;;;;;;9.63;3.97;;;5.30;54.50;;;;;;4941242;29;20225;-88
2021/04/22 01:34:46;;;;;;;7.23;3.43;;;5.20;55.10;;;;;;4940530;29;20678;-87
2021/04/22 01:37:12;;;;;;;11.53;4.10;;;5.30;54.80;;;;;;4940632;29;20531;-87
2021/04/22 01:39:37;;;;;;;8.77;3.40;;;5.30;54.80;;;;;;4940414;29;20179;-87
2021/04/22 01:42:03;;;;;;;10.90;3.73;;;5.20;54.90;;;;;;4956451;29;20179;-87
2021/04/22 01:44:29;;;;;;;13.93;3.70;;;5.10;55.30;;;;;;4956504;29;20266;-87
2021/04/22 01:46:54;;;;;;;7.53;3.83;;;5.00;55.30;;;;;;4940266;29;20273;-87
2021/04/22 01:49:20;;;;;;;12.13;4.80;;;5.00;55.60;;;;;;4939977;29;20365;-87
2021/04/22 01:51:45;;;;;;;17.37;6.87;;;4.80;56.00;;;;;;4957315;29;20173;-87
2021/04/22 01:54:11;;;;;;;13.60;5.97;;;4.70;55.90;;;;;;4957173;29;20179;-87
2021/04/22 01:56:36;;;;;;;10.20;5.23;;;4.60;56.40;;;;;;4957133;29;20269;-87
2021/04/22 01:59:02;;;;;;;16.57;5.37;;;4.60;56.60;;;;;;4956018;29;20190;-87
2021/04/22 02:01:28;;;;;;;7.57;4.23;;;4.60;56.90;;;;;;4955608;28;20175;-87
2021/04/22 02:03:53;;;;;;;8.07;5.10;;;4.60;57.30;;;;;;4939725;29;20226;-87
2021/04/22 02:06:19;;;;;;;8.87;6.30;;;4.60;57.70;;;;;;4957210;29;20175;-87
2021/04/22 02:08:44;;;;;;;6.13;5.40;;;4.50;57.70;;;;;;4956945;29;20224;-87
2021/04/22 02:11:10;;;;;;;16.10;5.63;;;4.60;57.80;;;;;;4956904;29;20177;-87
2021/04/22 02:13:35;;;;;;;10.93;4.43;;;4.40;57.60;;;;;;4956861;29;20179;-87
2021/04/22 02:16:01;;;;;;;7.80;4.23;;;4.50;57.30;;;;;;4956896;29;20255;-87
2021/04/22 02:18:27;;;;;;;20.73;5.60;;;4.40;57.70;;;;;;4956859;29;20181;-87
2021/04/22 02:20:53;;;;;;;14.57;4.87;;;4.20;58.00;;;;;;4939674;29;20186;-88
2021/04/22 02:23:20;;;;;;;18.67;4.60;;;4.40;58.00;;;;;;4956963;29;20510;-88
2021/04/22 02:25:47;;;;;;;12.38;6.22;;;4.30;58.00;;;;;;4956638;29;20423;-87
2021/04/22 02:28:13;;;;;;;17.58;5.28;;;4.20;58.10;;;;;;4956424;29;20212;-86
2021/04/22 02:30:40;;;;;;;13.60;4.47;;;4.10;58.50;;;;;;4956661;29;20174;-86
2021/04/22 02:33:09;;;;;;;17.55;4.13;;;4.10;58.20;;;;;;4955356;29;20426;-86
2021/04/22 02:35:38;;;;;;;13.07;5.35;;;4.00;58.60;;;;;;4956813;29;20178;-86
2021/04/22 02:38:06;;;;;;;11.50;6.00;;;4.00;58.70;;;;;;4955160;29;20187;-87
2021/04/22 02:40:34;;;;;;;13.30;5.00;;;3.90;59.00;;;;;;4939506;29;20206;-86
2021/04/22 02:43:03;;;;;;;13.90;6.05;;;3.90;59.30;;;;;;4955117;29;20181;-86
2021/04/22 02:45:32;;;;;;;9.05;4.80;;;4.40;59.30;;;;;;4956210;29;20173;-86
2021/04/22 02:47:58;;;;;;;9.10;5.70;;;3.90;59.40;;;;;;4956204;29;20225;-86
2021/04/22 02:50:27;;;;;;;10.98;4.55;;;3.90;59.30;;;;;;4955969;29;20219;-86
2021/04/22 02:52:53;;;;;;;15.05;4.65;;;3.90;59.40;;;;;;4956242;29;20170;-86
2021/04/22 02:55:22;;;;;;;9.40;4.50;;;3.90;59.20;;;;;;4956051;29;20174;-86
2021/04/22 02:57:48;;;;;;;6.65;3.40;;;3.90;58.80;;;;;;4956038;29;20477;-87
2021/04/22 03:00:18;;;;;;;10.93;4.50;;;3.80;59.00;;;;;;4954702;29;20631;-86
2021/04/22 03:02:43;;;;;;;9.90;6.38;;;3.80;59.20;;;;;;4938761;29;20173;-87
2021/04/22 03:05:10;;;;;;;10.57;4.30;;;3.70;59.40;;;;;;4955854;29;20174;-87
2021/04/22 03:07:35;;;;;;;8.20;4.03;;;3.70;59.30;;;;;;4956636;29;20253;-87
2021/04/22 03:10:02;;;;;;;21.47;5.13;;;3.50;59.60;;;;;;4956083;29;20602;-87
2021/04/22 03:12:28;;;;;;;10.50;3.60;;;3.60;59.70;;;;;;4955730;29;20167;-87
2021/04/22 03:14:53;;;;;;;8.33;3.37;;;3.50;59.40;;;;;;4955272;28;20513;-86
2021/04/22 03:17:19;;;;;;;6.67;4.20;;;3.60;59.40;;;;;;4956064;29;20178;-87
2021/04/22 03:19:45;;;;;;;11.10;4.20;;;3.40;59.60;;;;;;4955927;29;20270;-86
2021/04/22 03:22:10;;;;;;;13.83;3.97;;;3.40;59.80;;;;;;4955625;29;20234;-86
2021/04/22 03:24:36;;;;;;;10.40;3.70;;;3.50;59.60;;;;;;4956078;29;20171;-87
2021/04/22 03:27:03;;;;;;;14.83;3.80;;;3.50;59.60;;;;;;4956034;29;20174;-87
2021/04/22 03:29:28;;;;;;;17.73;5.15;;;3.40;59.70;;;;;;4938880;29;20549;-87
2021/04/22 03:31:54;;;;;;;10.23;4.50;;;3.40;59.80;;;;;;4955496;29;20198;-86
2021/04/22 03:34:19;;;;;;;11.10;4.60;;;3.30;60.40;;;;;;4955711;29;20189;-87
2021/04/22 03:36:45;;;;;;;16.13;5.00;;;3.20;61.10;;;;;;4955671;29;20182;-87
2021/04/22 03:39:10;;;;;;;6.97;3.73;;;3.30;62.10;;;;;;4938307;29;20178;-87
2021/04/22 03:41:36;;;;;;;14.07;4.37;;;3.30;60.00;;;;;;4956253;29;20171;-86
2021/04/22 03:44:02;;;;;;;20.03;5.33;;;3.20;60.70;;;;;;4959613;29;20173;-85
2021/04/22 03:46:27;;;;;;;14.43;4.60;;;3.10;60.70;;;;;;4955502;29;20167;-87
2021/04/22 03:48:53;;;;;;;14.10;4.90;;;3.20;61.10;;;;;;4954250;29;20485;-85
2021/04/22 03:51:19;;;;;;;11.83;6.20;;;3.20;61.70;;;;;;4955259;29;20532;-85
2021/04/22 03:53:44;;;;;;;8.80;7.67;;;3.20;61.80;;;;;;4954036;29;20229;-86
2021/04/22 03:56:10;;;;;;;9.40;5.50;;;3.10;62.20;;;;;;4938132;29;20203;-86
2021/04/22 03:58:35;;;;;;;13.97;4.50;;;3.10;61.60;;;;;;4955450;29;20183;-86
2021/04/22 04:01:02;;;;;;;10.30;4.30;;;3.20;61.30;;;;;;4955241;29;20171;-86
2021/04/22 04:03:28;;;;;;;8.43;4.00;;;3.20;62.10;;;;;;4955088;29;20179;-86
2021/04/22 04:05:54;;;;;;;7.73;3.50;;;3.10;62.30;;;;;;4955273;29;20166;-86
2021/04/22 04:08:19;;;;;;;9.00;4.33;;;3.10;61.60;;;;;;4937839;29;20297;-87
2021/04/22 04:10:45;;;;;;;12.63;4.23;;;3.00;60.90;;;;;;4938460;29;20178;-87
2021/04/22 04:13:11;;;;;;;11.40;4.67;;;2.90;60.90;;;;;;4953927;29;20174;-87
2021/04/22 04:15:37;;;;;;;15.02;5.07;;;2.80;61.80;;;;;;4938185;29;20257;-83
2021/04/22 04:18:03;;;;;;;12.53;4.03;;;2.70;62.30;;;;;;4954183;29;20225;-86
2021/04/22 04:20:29;;;;;;;17.02;5.10;;;2.70;63.00;;;;;;4955349;29;20207;-86
2021/04/22 04:22:55;;;;;;;22.30;5.40;;;2.70;63.40;;;;;;4953920;29;20210;-86
2021/04/22 04:25:20;;;;;;;10.77;4.97;;;2.70;63.30;;;;;;4954810;28;20241;-87
2021/04/22 04:27:46;;;;;;;11.33;3.93;;;2.70;63.20;;;;;;4958850;29;20512;-85
2021/04/22 04:30:15;;;;;;;16.63;5.07;;;2.70;63.20;;;;;;4941538;29;20225;-86
2021/04/22 04:32:41;;;;;;;7.22;4.60;;;2.70;63.30;;;;;;4959235;29;20163;-86
2021/04/22 04:35:08;;;;;;;7.57;4.20;;;2.70;63.10;;;;;;4959195;29;20589;-83
2021/04/22 04:37:34;;;;;;;10.13;4.72;;;2.70;63.30;;;;;;4958852;29;20398;-87
2021/04/22 04:40:00;;;;;;;13.88;4.85;;;2.60;63.40;;;;;;4959540;29;20249;-87
2021/04/22 04:42:26;;;;;;;11.87;4.53;;;2.60;63.70;;;;;;4941723;29;20559;-87
2021/04/22 04:44:51;;;;;;;11.20;4.27;;;2.70;63.90;;;;;;4961209;29;20174;-86
2021/04/22 04:47:17;;;;;;;5.80;4.50;;;2.70;63.80;;;;;;4965948;29;20229;-87
2021/04/22 04:49:42;;;;;;;12.43;4.63;;;2.70;63.50;;;;;;4975810;29;20230;-86
2021/04/22 04:52:08;;;;;;;14.70;4.80;;;2.70;63.50;;;;;;4976837;29;20171;-87
2021/04/22 04:54:36;;;;;;;16.10;4.97;;;2.70;63.70;;;;;;4959310;29;20203;-84
2021/04/22 04:57:03;;;;;;;10.02;4.45;;;2.60;64.40;;;;;;4959388;29;20193;-87
2021/04/22 04:59:28;;;;;;;14.93;4.68;;;2.70;64.50;;;;;;4959011;29;20250;-86
2021/04/22 05:01:54;;;;;;;17.03;6.13;;;2.80;64.60;;;;;;4941516;29;20218;-87
2021/04/22 05:04:19;;;;;;;10.33;5.47;;;2.80;64.30;;;;;;4958813;29;20179;-87
2021/04/22 05:06:45;;;;;;;19.43;5.43;;;3.00;63.20;;;;;;4957635;29;20358;-87
2021/04/22 05:09:10;;;;;;;14.73;7.07;;;3.10;62.50;;;;;;4958840;29;20203;-87
2021/04/22 05:11:36;;;;;;;10.77;4.87;;;3.30;61.90;;;;;;4958325;29;20210;-86
2021/04/22 05:14:03;;;;;;;11.63;5.53;;;3.40;61.60;;;;;;4941435;29;20183;-87
2021/04/22 05:16:28;;;;;;;8.15;5.78;;;3.60;61.30;;;;;;4957767;29;20182;-87
2021/04/22 05:18:54;;;;;;;10.30;4.87;;;3.70;60.10;;;;;;4959136;29;20167;-85
2021/04/22 05:21:19;;;;;;;11.90;5.60;;;3.80;59.50;;;;;;4958165;29;20205;-87
2021/04/22 05:23:45;;;;;;;13.57;5.07;;;3.80;59.90;;;;;;4959424;29;20180;-87
2021/04/22 05:26:11;;;;;;;8.30;5.67;;;3.80;60.60;;;;;;4941551;29;20171;-87
2021/04/22 05:28:37;;;;;;;11.90;5.97;;;3.80;60.50;;;;;;4599718;29;10000366;-87
2021/04/22 05:31:03;;;;;;;15.90;5.50;;;4.00;60.10;;;;;;4956693;29;20182;-86
2021/04/22 05:33:29;;;;;;;9.95;5.00;;;4.10;58.80;;;;;;4955724;29;20170;-86
2021/04/22 05:35:54;;;;;;;12.87;5.13;;;4.20;58.80;;;;;;4956996;29;20721;-88
2021/04/22 05:38:20;;;;;;;14.20;5.07;;;4.40;58.00;;;;;;4955638;28;20250;-86
2021/04/22 05:40:46;;;;;;;10.03;5.00;;;4.50;58.00;;;;;;4956067;29;20295;-87
2021/04/22 05:43:11;;;;;;;13.17;6.23;;;4.50;58.00;;;;;;4956522;29;20630;-86
2021/04/22 05:45:38;;;;;;;14.80;4.87;;;4.60;57.80;;;;;;4956135;29;20194;-85
2021/04/22 05:48:05;;;;;;;12.10;7.15;;;4.70;58.20;;;;;;4956729;29;20241;-87
2021/04/22 05:50:31;;;;;;;16.58;5.60;;;4.90;58.20;;;;;;4955337;29;20238;-86
2021/04/22 05:52:57;;;;;;;11.90;6.33;;;4.90;58.10;;;;;;4955636;29;20202;-85
2021/04/22 05:55:23;;;;;;;9.87;4.97;;;5.00;58.00;;;;;;4956670;29;20258;-86
2021/04/22 05:57:49;;;;;;;10.93;5.30;;;5.10;57.40;;;;;;4955467;29;20678;-86
2021/04/22 06:00:19;;;;;;;16.67;4.60;;;5.30;57.30;;;;;;4956551;29;20241;-87
2021/04/22 06:02:45;;;;;;;8.40;5.63;;;5.60;56.10;;;;;;4954531;29;20505;-87
2021/04/22 06:05:11;;;;;;;11.50;5.60;;;5.90;56.30;;;;;;4953275;29;20285;-85
2021/04/22 06:07:37;;;;;;;27.90;4.97;;;6.10;55.50;;;;;;4955013;29;20178;-87
2021/04/22 06:10:04;;;;;;;10.83;5.37;;;6.40;54.80;;;;;;4955341;29;20221;-87
2021/04/22 06:12:30;;;;;;;9.45;4.50;;;6.60;54.70;;;;;;4937769;29;20425;-87
2021/04/22 06:14:55;;;;;;;10.03;5.30;;;6.90;54.00;;;;;;4954609;29;20171;-86
2021/04/22 06:17:21;;;;;;;8.47;5.30;;;7.20;53.50;;;;;;4954652;29;20175;-86
2021/04/22 06:19:46;;;;;;;11.47;4.50;;;7.30;53.70;;;;;;4954915;29;20174;-87
2021/04/22 06:22:12;;;;;;;8.70;4.10;;;7.60;53.70;;;;;;4954829;29;20181;-87
2021/04/22 06:24:37;;;;;;;11.30;4.90;;;8.10;52.90;;;;;;4954869;29;20226;-86
2021/04/22 06:27:03;;;;;;;8.57;5.37;;;8.30;52.00;;;;;;4954590;29;20178;-87
2021/04/22 06:29:32;;;;;;;5.00;3.97;;;8.40;52.30;;;;;;4954941;29;20217;-86
2021/04/22 06:31:57;;;;;;;10.43;4.97;;;8.60;52.50;;;;;;4955514;29;20876;-87
2021/04/22 06:34:23;;;;;;;10.50;7.63;;;8.60;52.50;;;;;;4956345;29;20445;-87
2021/04/22 06:36:50;;;;;;;10.57;5.00;;;8.40;52.00;;;;;;4959191;29;20183;-85
2021/04/22 06:39:15;;;;;;;13.20;5.40;;;8.40;52.00;;;;;;4942395;28;20426;-88
2021/04/22 06:41:41;;;;;;;13.60;5.10;;;8.20;52.00;;;;;;4970737;29;20427;-87
2021/04/22 06:44:07;;;;;;;10.90;6.20;;;8.00;52.40;;;;;;4971484;29;20469;-86
2021/04/22 06:46:34;;;;;;;10.30;5.97;;;7.90;52.70;;;;;;4945455;29;20538;-87
2021/04/22 06:49:00;;;;;;;12.57;4.80;;;7.80;53.00;;;;;;4956168;28;20233;-87
2021/04/22 06:51:26;;;;;;;12.37;5.80;;;7.80;53.50;;;;;;4958258;29;20422;-87
2021/04/22 06:54:00;;;;;;;12.07;6.30;;;7.70;53.60;;;;;;4943126;28;20408;-90
2021/04/22 06:56:25;;;;;;;11.45;6.72;;;7.30;54.80;;;;;;5474927;23;20491;-86
2021/04/22 06:59:00;;;;;;;10.50;5.03;;;9.10;56.60;;;;;;5237380;23;20813;-90
2021/04/22 07:01:29;;;;;;;28.50;6.65;;;7.50;53.20;;;;;;4935499;29;20168;-90
2021/04/22 07:04:07;;;;;;;;;;;;;;;;;;;;;
2021/04/22 07:06:33;;;;;;;20.57;7.50;;;7.80;52.90;;;;;;4922407;29;20519;-90
2021/04/22 07:08:59;;;;;;;18.33;5.00;;;6.70;50.30;;;;;;4920466;29;20496;-86
2021/04/22 07:11:24;;;;;;;14.60;5.43;;;10.60;50.00;;;;;;4922667;29;20349;-85
2021/04/22 07:13:50;;;;;;;10.63;4.50;;;8.10;47.90;;;;;;4924849;29;20549;-88
2021/04/22 07:16:16;;;;;;;9.23;4.57;;;8.20;47.40;;;;;;4921164;29;20179;-91
2021/04/22 07:18:41;;;;;;;11.43;4.37;;;10.10;47.60;;;;;;4923045;29;20184;-89
2021/04/22 07:21:07;;;;;;;10.70;5.00;;;9.40;48.60;;;;;;4949302;29;20183;-89
2021/04/22 07:23:33;;;;;;;10.23;5.17;;;9.50;47.90;;;;;;4949825;29;20191;-90
2021/04/22 07:25:59;;;;;;;13.13;4.47;;;8.30;47.00;;;;;;4933267;29;20225;-90
2021/04/22 07:28:28;;;;;;;11.50;4.00;;;10.70;47.60;;;;;;4943500;29;20207;-89
2021/04/22 07:30:54;;;;;;;7.00;3.30;;;10.00;46.30;;;;;;4938929;28;20167;-87
2021/04/22 07:38:30;;;;;;;4.30;3.37;;;9.10;43.90;;;;;;5145769;23;20245;-88
2021/04/22 07:40:56;;;;;;;3.13;2.73;;;11.70;46.20;;;;;;4975830;28;20419;-88
2021/04/22 07:46:01;;;;;;;6.80;3.40;;;9.40;43.50;;;;;;5151164;23;20252;-89
2021/04/22 07:48:30;;;;;;;7.73;3.47;;;10.60;42.90;;;;;;4975558;28;20492;-90
2021/04/22 07:53:26;;;;;;;4.17;3.80;;;10.10;41.20;;;;;;4955814;28;20462;-87
2021/04/22 08:14:47;;;;;;;6.50;3.90;;;11.40;37.50;;;;;;5161273;23;20529;-90
2021/04/22 08:17:13;;;;;;;3.70;3.50;;;12.50;37.70;;;;;;4960643;28;20414;-91
2021/04/22 08:22:14;;;;;;;5.10;3.93;;;13.40;33.40;;;;;;5115410;23;20225;-91
2021/04/22 08:27:15;;;;;;;6.30;3.50;;;13.70;32.80;;;;;;1814712;23;21203;-88
2021/04/22 08:29:44;;;;;;;3.07;2.90;;;14.80;34.60;;;;;;5073621;23;20497;-90
2021/04/22 08:32:12;;;;;;;5.60;3.47;;;15.70;33.30;;;;;;4958762;29;20190;-90
2021/04/22 08:34:52;;;;;;;7.93;3.63;;;16.40;35.10;;;;;;5788687;23;20450;-90
2021/04/22 08:37:18;;;;;;;6.97;4.00;;;19.60;34.60;;;;;;5214765;23;22256;-90
2021/04/22 08:42:26;;;;;;;7.70;4.60;;;15.70;33.00;;;;;;4926381;23;20530;-87
2021/04/22 08:44:55;;;;;;;13.77;8.50;;;15.90;34.30;;;;;;5157672;23;20548;-88
2021/04/22 08:55:23;;;;;;;11.27;3.53;;;17.40;27.60;;;;;;4977823;23;20485;-87
2021/04/22 08:57:51;;;;;;;5.90;3.73;;;19.90;29.60;;;;;;5657220;23;20978;-90
2021/04/22 09:00:54;;;;;;;5.80;3.13;;;17.80;26.40;;;;;;5295971;23;20565;-88
2021/04/22 09:11:56;;;;;;;7.90;3.40;;;18.20;26.70;;;;;;5005711;23;20511;-88
2021/04/22 09:14:23;;;;;;;6.80;4.20;;;20.30;28.50;;;;;;5236351;23;20490;-88
2021/04/22 09:24:31;;;;;;;7.27;4.53;;;17.00;27.30;;;;;;4934166;29;20463;-89
2021/04/22 09:29:39;;;;;;;12.07;4.03;;;17.70;26.90;;;;;;5259183;23;20511;-88
2021/04/22 09:34:57;;;;;;;5.47;4.83;;;19.70;27.20;;;;;;5292708;23;20473;-89
2021/04/22 09:37:48;;;;;;;7.10;6.10;;;19.20;27.70;;;;;;5232906;23;20444;-86
2021/04/22 09:40:37;;;;;;;12.90;7.77;;;20.10;26.30;;;;;;5187923;23;20482;-90
2021/04/22 09:43:06;;;;;;;12.63;10.00;;;21.40;25.80;;;;;;5160284;23;20543;-88
2021/04/22 09:45:36;;;;;;;7.67;6.97;;;19.00;26.70;;;;;;4960485;28;20454;-85
2021/04/22 09:58:25;;;;;;;7.27;4.10;;;20.10;26.00;;;;;;5430268;23;20490;-86
2021/04/22 10:00:53;;;;;;;10.63;4.80;;;20.50;25.70;;;;;;4939915;28;20437;-87
2021/04/22 10:14:04;;;;;;;6.10;4.67;;;18.10;26.50;;;;;;5211858;23;20486;-88
2021/04/22 10:19:34;;;;;;;7.70;5.50;;;19.40;26.10;;;;;;4933655;29;20202;-87
2021/04/22 10:22:05;;;;;;;5.77;3.43;;;20.00;26.40;;;;;;5107818;23;20505;-90
2021/04/22 10:27:04;;;;;;;7.07;4.27;;;20.20;25.50;;;;;;4953425;29;20498;-92
2021/04/22 10:29:37;;;;;;;10.60;4.77;;;19.60;26.10;;;;;;4936867;29;20467;-92
2021/04/22 10:32:08;;;;;;;7.63;5.07;;;20.90;27.10;;;;;;4954496;29;20495;-88
2021/04/22 10:34:37;;;;;;;4.53;4.20;;;20.80;26.10;;;;;;4938503;29;21051;-91
2021/04/22 10:37:05;;;;;;;9.63;4.10;;;22.30;26.10;;;;;;4953631;29;20419;-90
2021/04/22 10:39:34;;;;;;;5.87;4.00;;;21.30;26.30;;;;;;5185977;23;20493;-90
2021/04/22 10:42:25;;;;;;;7.13;3.97;;;22.20;25.20;;;;;;4901421;29;20445;-90
2021/04/22 10:44:55;;;;;;;8.93;4.23;;;22.60;24.80;;;;;;4901248;29;20433;-89
2021/04/22 10:47:25;;;;;;;5.00;4.67;;;22.80;26.00;;;;;;4898155;29;20425;-89
2021/04/22 10:52:27;;;;;;;10.00;5.87;;;22.30;26.00;;;;;;5062005;23;20489;-91
2021/04/22 10:55:26;;;;;;;4.90;4.50;;;20.20;25.30;;;;;;4971825;29;20434;-88
2021/04/22 10:57:54;;;;;;;7.70;5.03;;;20.60;25.60;;;;;;4957083;28;20423;-89
2021/04/22 11:00:27;;;;;;;17.30;13.00;;;20.90;25.60;;;;;;4956435;29;20407;-86
2021/04/22 11:03:00;;;;;;;10.27;6.40;;;22.00;25.20;;;;;;4968951;28;20538;-87
2021/04/22 11:08:17;;;;;;;4.10;3.67;;;20.50;25.10;;;;;;4934122;29;20539;-86
2021/04/22 11:10:47;;;;;;;4.97;3.87;;;20.40;25.30;;;;;;4935253;29;20436;-87
2021/04/22 11:13:16;;;;;;;5.77;3.67;;;20.60;24.90;;;;;;4919326;29;20220;-88
2021/04/22 11:15:57;;;;;;;18.43;5.50;;;21.70;25.60;;;;;;5206714;23;20486;-92
2021/04/22 11:18:44;;;;;;;4.60;4.20;;;21.80;26.00;;;;;;4955410;28;20516;-92
2021/04/22 11:30:05;;;;;;;4.97;4.23;;;20.00;24.90;;;;;;3800784;23;20470;-90
2021/04/22 11:35:16;;;;;;;7.60;5.37;;;19.90;25.60;;;;;;5581146;23;20491;-89
2021/04/22 11:37:57;;;;;;;8.43;5.03;;;21.00;25.50;;;;;;4957910;28;20455;-88
2021/04/22 11:40:29;;;;;;;7.43;4.30;;;22.90;26.20;;;;;;4975837;28;20406;-90
2021/04/22 11:48:13;;;;;;;7.33;4.13;;;23.00;24.70;;;;;;5257639;23;20525;-88
2021/04/22 11:53:40;;;;;;;6.37;5.60;;;23.00;24.90;;;;;;5035606;23;20266;-90
2021/04/22 11:56:11;;;;;;;9.20;5.10;;;23.60;24.80;;;;;;5071414;23;20492;-89
2021/04/22 11:58:38;;;;;;;5.37;4.90;;;23.90;24.70;;;;;;4967951;28;20416;-89
2021/04/22 12:01:08;;;;;;;4.93;4.27;;;25.40;25.40;;;;;;5094116;23;20542;-89
2021/04/22 12:03:39;;;;;;;6.43;4.40;;;24.40;25.20;;;;;;5243802;23;20620;-91
2021/04/22 12:08:49;;;;;;;4.87;4.60;;;23.60;24.40;;;;;;4649234;23;20470;-91
2021/04/22 12:11:22;;;;;;;8.90;6.43;;;23.90;24.10;;;;;;5014067;23;20496;-88
2021/04/22 12:13:48;;;;;;;6.33;5.30;;;25.00;24.70;;;;;;5731729;23;20429;-87
2021/04/22 12:16:15;;;;;;;11.53;4.90;;;24.20;24.60;;;;;;5213043;23;20484;-89
2021/04/22 12:18:44;;;;;;;4.87;4.57;;;23.60;24.90;;;;;;4953523;28;20466;-89
2021/04/22 12:21:32;;;;;;;4.37;4.00;;;24.00;25.30;;;;;;4972789;28;20477;-92
2021/04/22 12:24:00;;;;;;;41.00;25.83;;;24.20;24.20;;;;;;5047746;23;20474;-91
2021/04/22 12:29:05;;;;;;;13.03;6.23;;;24.60;24.10;;;;;;4990457;28;20496;-89
2021/04/22 12:31:33;;;;;;;5.93;5.30;;;23.80;23.70;;;;;;4974456;28;20436;-89
2021/04/22 12:37:04;;;;;;;6.90;6.00;;;21.00;24.90;;;;;;4915436;23;20505;-91
2021/04/22 12:39:41;;;;;;;33.10;19.27;;;21.30;25.60;;;;;;4950131;29;20442;-89
2021/04/22 12:42:12;;;;;;;6.70;5.10;;;22.00;26.20;;;;;;4951569;29;20526;-86
2021/04/22 12:44:40;;;;;;;10.40;5.67;;;22.30;25.30;;;;;;4928645;29;20431;-93
2021/04/22 12:47:09;;;;;;;5.80;4.40;;;23.40;25.40;;;;;;4948405;29;20899;-93
2021/04/22 12:49:36;;;;;;;4.57;4.17;;;24.40;25.90;;;;;;4933534;29;20466;-91
2021/04/22 12:52:03;;;;;;;5.23;4.67;;;22.30;24.90;;;;;;4949548;29;20411;-88
2021/04/22 12:54:28;;;;;;;8.70;4.70;;;22.90;25.30;;;;;;4938429;29;20430;-88
2021/04/22 12:56:55;;;;;;;4.43;4.10;;;24.20;25.60;;;;;;4961640;29;20501;-87
2021/04/22 12:59:23;;;;;;;10.23;5.77;;;23.10;25.60;;;;;;4959646;29;20469;-87
2021/04/22 13:01:49;;;;;;;7.33;6.67;;;23.10;24.20;;;;;;4959327;29;20627;-88
2021/04/22 13:04:16;;;;;;;7.97;4.73;;;21.70;24.40;;;;;;4959069;29;20428;-87
2021/04/22 13:06:43;;;;;;;6.03;4.83;;;22.40;25.20;;;;;;4947311;29;20414;-90
2021/04/22 13:09:10;;;;;;;8.20;5.33;;;22.30;24.40;;;;;;4953703;29;20560;-90
2021/04/22 13:11:38;;;;;;;9.07;5.57;;;23.00;24.90;;;;;;4953931;29;20414;-89
2021/04/22 13:14:12;;;;;;;8.70;7.90;;;23.90;24.30;;;;;;4953475;29;20484;-89
2021/04/22 13:16:56;;;;;;;8.47;5.73;;;23.50;24.30;;;;;;4952353;29;20425;-88
2021/04/22 13:19:23;;;;;;;5.90;4.90;;;23.50;24.50;;;;;;4967813;29;20425;-87
2021/04/22 13:21:58;;;;;;;5.70;5.20;;;25.00;25.30;;;;;;4972218;29;20414;-89
2021/04/22 13:24:37;;;;;;;7.23;5.13;;;23.40;24.30;;;;;;4973460;28;20477;-90
2021/04/22 13:27:23;;;;;;;7.83;6.00;;;25.30;25.40;;;;;;4974541;28;20504;-90
2021/04/22 13:30:28;;;;;;;9.80;5.30;;;23.90;24.60;;;;;;4958901;29;20484;-89
2021/04/22 13:33:02;;;;;;;6.60;4.80;;;23.30;24.80;;;;;;4977149;28;20436;-88
2021/04/22 13:35:28;;;;;;;8.73;4.67;;;23.00;24.30;;;;;;4970395;28;20480;-92
2021/04/22 13:38:00;;;;;;;7.37;5.60;;;22.00;25.20;;;;;;4990065;28;20425;-91
2021/04/22 13:40:26;;;;;;;5.90;4.70;;;21.40;25.60;;;;;;4974007;28;20429;-88
2021/04/22 13:42:53;;;;;;;7.83;4.70;;;21.20;24.80;;;;;;4966295;28;20424;-82
2021/04/22 13:45:21;;;;;;;5.67;4.67;;;22.80;25.90;;;;;;4613748;28;10000339;-82
2021/04/22 13:47:46;;;;;;;8.33;4.57;;;20.80;24.70;;;;;;4973470;28;20177;-83
2021/04/22 13:50:13;;;;;;;5.77;5.23;;;20.90;25.00;;;;;;4973962;28;21004;-84
2021/04/22 13:52:39;;;;;;;8.63;5.03;;;21.50;25.00;;;;;;4975096;28;20212;-83
2021/04/22 13:55:07;;;;;;;6.10;5.40;;;21.30;24.90;;;;;;4958754;28;20418;-83
2021/04/22 13:57:40;;;;;;;6.77;5.00;;;21.10;25.10;;;;;;4979759;28;20181;-81
2021/04/22 14:00:15;;;;;;;8.87;5.00;;;21.20;25.60;;;;;;4973940;28;20540;-82
2021/04/22 14:02:45;;;;;;;6.53;5.30;;;21.60;25.50;;;;;;4973923;28;20409;-82
2021/04/22 14:05:14;;;;;;;5.27;4.87;;;22.10;25.20;;;;;;4973299;28;20839;-80
2021/04/22 14:07:40;;;;;;;5.00;3.77;;;22.40;24.70;;;;;;4973279;28;20414;-83
2021/04/22 14:10:06;;;;;;;8.17;5.13;;;21.60;24.50;;;;;;4971450;28;20929;-83
2021/04/22 14:12:35;;;;;;;7.13;5.33;;;21.80;25.10;;;;;;4973105;28;20503;-83
2021/04/22 14:15:05;;;;;;;9.70;5.40;;;21.30;24.70;;;;;;4974007;28;20426;-82
2021/04/22 14:17:32;;;;;;;6.40;5.33;;;21.00;25.50;;;;;;4971455;28;20917;-82
2021/04/22 14:19:57;;;;;;;7.43;5.03;;;21.00;25.60;;;;;;4972491;28;20504;-83
2021/04/22 14:22:23;;;;;;;8.80;7.00;;;21.10;25.50;;;;;;4955471;28;20504;-83
2021/04/22 14:24:48;;;;;;;5.37;4.83;;;21.00;25.40;;;;;;4972074;28;20182;-82
2021/04/22 14:27:17;;;;;;;7.03;6.00;;;21.00;25.90;;;;;;4972959;28;20177;-82
2021/04/22 14:29:43;;;;;;;6.17;5.57;;;20.90;26.10;;;;;;4972682;28;20240;-84
2021/04/22 14:32:09;;;;;;;5.90;4.83;;;21.40;26.30;;;;;;4968021;28;20449;-82
2021/04/22 14:34:34;;;;;;;6.93;5.10;;;21.20;25.80;;;;;;4970269;28;20972;-84
2021/04/22 14:37:00;;;;;;;4.87;4.47;;;21.40;25.80;;;;;;4970235;28;20182;-84
2021/04/22 14:39:26;;;;;;;6.93;6.10;;;22.20;26.00;;;;;;4953593;29;20511;-83
2021/04/22 14:41:54;;;;;;;7.67;5.93;;;21.60;25.60;;;;;;4953603;29;20249;-83
2021/04/22 14:44:20;;;;;;;4.60;4.20;;;21.20;25.80;;;;;;4954089;28;20785;-83
2021/04/22 14:46:47;;;;;;;6.73;4.83;;;20.90;25.80;;;;;;4954559;29;20989;-84
2021/04/22 14:49:12;;;;;;;5.53;5.10;;;20.60;25.90;;;;;;4957432;28;20469;-84
2021/04/22 14:51:40;;;;;;;13.80;8.50;;;20.40;26.20;;;;;;4974976;28;20468;-84
2021/04/22 14:54:07;;;;;;;9.13;5.30;;;20.20;26.00;;;;;;4974983;28;20909;-83
2021/04/22 14:56:34;;;;;;;5.40;4.90;;;21.30;26.40;;;;;;4974870;28;20793;-82
2021/04/22 14:59:00;;;;;;;11.53;6.93;;;20.30;25.70;;;;;;4974631;28;20759;-82